<?xml version="1.0" encoding="UTF-8"?><gpx creator="Wikiloc - http://www.wikiloc.com" version="1.1" xmlns="http://www.topografix.com/GPX/1/1" xmlns:xsi="http://www.w3.org/2001/XMLSchema-instance" xsi:schemaLocation="http://www.topografix.com/GPX/1/1 http://www.topografix.com/GPX/1/1/gpx.xsd"><wpt lat="40.217020" lon="-6.802050"><ele>597.4</ele><time>2008-10-05T17:11:19Z</time><name>CONVENTO</name><cmt></cmt><desc></desc></wpt><wpt lat="40.216120" lon="-6.802460"><ele>588.3</ele><time>2008-10-05T17:11:19Z</time><name>ERMITA</name><cmt></cmt><desc></desc></wpt><wpt lat="40.215320" lon="-6.794240"><ele>616.3</ele><time>2008-10-05T17:11:19Z</time><name>FUENTE2</name><cmt></cmt><desc></desc></wpt><wpt lat="40.213230" lon="-6.797430"><ele>606.6</ele><time>2008-10-05T17:11:19Z</time><name>San Martin de Trevejo</name><cmt></cmt><desc></desc></wpt><wpt lat="40.213255" lon="-6.797372"><ele>0.0</ele><time>2008-10-14T15:29:52Z</time><name>FUENTE</name><cmt></cmt><desc></desc></wpt><trk><name>SL-CC 208 'Entre ríos y bosques' (San Martín de Trevejo)</name><cmt></cmt><desc></desc><trkseg><trkpt lat="40.213255" lon="-6.797372"><ele>543.8</ele><time>2008-10-04T15:47:03Z</time></trkpt><trkpt lat="40.212920" lon="-6.796720"><ele>607.7</ele><time>2008-10-04T15:52:59Z</time></trkpt><trkpt lat="40.212930" lon="-6.796550"><ele>607.2</ele><time>2008-10-04T15:54:09Z</time></trkpt><trkpt lat="40.212960" lon="-6.796260"><ele>606.2</ele><time>2008-10-04T15:54:31Z</time></trkpt><trkpt lat="40.212981" lon="-6.796252"><ele>609.1</ele><time>2008-10-04T15:56:45Z</time></trkpt><trkpt lat="40.212980" lon="-6.795610"><ele>612.0</ele><time>2008-10-04T15:58:38Z</time></trkpt><trkpt lat="40.213120" lon="-6.794920"><ele>612.0</ele><time>2008-10-04T15:59:43Z</time></trkpt><trkpt lat="40.213307" lon="-6.794408"><ele>612.0</ele><time>2008-10-04T16:00:18Z</time></trkpt><trkpt lat="40.213307" lon="-6.794408"><ele>612.0</ele><time>2008-10-04T16:02:25Z</time></trkpt><trkpt lat="40.214390" lon="-6.794370"><ele>613.0</ele><time>2008-10-04T16:02:37Z</time></trkpt><trkpt lat="40.214570" lon="-6.794430"><ele>615.4</ele><time>2008-10-04T16:02:59Z</time></trkpt><trkpt lat="40.214600" lon="-6.794430"><ele>616.8</ele><time>2008-10-04T16:03:01Z</time></trkpt><trkpt lat="40.214750" lon="-6.794400"><ele>620.2</ele><time>2008-10-04T16:03:16Z</time></trkpt><trkpt lat="40.214850" lon="-6.794480"><ele>619.2</ele><time>2008-10-04T16:03:30Z</time></trkpt><trkpt lat="40.215030" lon="-6.794410"><ele>622.6</ele><time>2008-10-04T16:03:49Z</time></trkpt><trkpt lat="40.215200" lon="-6.794330"><ele>622.6</ele><time>2008-10-04T16:04:10Z</time></trkpt><trkpt lat="40.215240" lon="-6.794290"><ele>622.1</ele><time>2008-10-04T16:04:28Z</time></trkpt><trkpt lat="40.215310" lon="-6.794240"><ele>620.2</ele><time>2008-10-04T16:04:44Z</time></trkpt><trkpt lat="40.215360" lon="-6.794250"><ele>620.7</ele><time>2008-10-04T16:05:27Z</time></trkpt><trkpt lat="40.215460" lon="-6.794220"><ele>623.6</ele><time>2008-10-04T16:05:43Z</time></trkpt><trkpt lat="40.215670" lon="-6.794200"><ele>625.5</ele><time>2008-10-04T16:06:08Z</time></trkpt><trkpt lat="40.215860" lon="-6.794210"><ele>627.4</ele><time>2008-10-04T16:06:29Z</time></trkpt><trkpt lat="40.216060" lon="-6.794190"><ele>628.8</ele><time>2008-10-04T16:06:52Z</time></trkpt><trkpt lat="40.216230" lon="-6.794180"><ele>630.3</ele><time>2008-10-04T16:07:12Z</time></trkpt><trkpt lat="40.216400" lon="-6.794180"><ele>634.1</ele><time>2008-10-04T16:07:52Z</time></trkpt><trkpt lat="40.216550" lon="-6.794170"><ele>636.1</ele><time>2008-10-04T16:08:11Z</time></trkpt><trkpt lat="40.216630" lon="-6.794220"><ele>636.5</ele><time>2008-10-04T16:08:51Z</time></trkpt><trkpt lat="40.216700" lon="-6.794200"><ele>638.5</ele><time>2008-10-04T16:09:06Z</time></trkpt><trkpt lat="40.216830" lon="-6.794160"><ele>639.9</ele><time>2008-10-04T16:09:26Z</time></trkpt><trkpt lat="40.216960" lon="-6.794160"><ele>641.3</ele><time>2008-10-04T16:09:45Z</time></trkpt><trkpt lat="40.217040" lon="-6.794130"><ele>641.8</ele><time>2008-10-04T16:09:59Z</time></trkpt><trkpt lat="40.217110" lon="-6.794140"><ele>646.6</ele><time>2008-10-04T16:10:16Z</time></trkpt><trkpt lat="40.217220" lon="-6.794130"><ele>646.1</ele><time>2008-10-04T16:10:34Z</time></trkpt><trkpt lat="40.217330" lon="-6.794130"><ele>647.6</ele><time>2008-10-04T16:10:57Z</time></trkpt><trkpt lat="40.217490" lon="-6.794190"><ele>652.9</ele><time>2008-10-04T16:11:18Z</time></trkpt><trkpt lat="40.217630" lon="-6.794220"><ele>657.2</ele><time>2008-10-04T16:11:37Z</time></trkpt><trkpt lat="40.217720" lon="-6.794160"><ele>656.7</ele><time>2008-10-04T16:11:55Z</time></trkpt><trkpt lat="40.217670" lon="-6.794050"><ele>656.2</ele><time>2008-10-04T16:12:11Z</time></trkpt><trkpt lat="40.217660" lon="-6.794030"><ele>657.2</ele><time>2008-10-04T16:12:14Z</time></trkpt><trkpt lat="40.217600" lon="-6.793850"><ele>658.2</ele><time>2008-10-04T16:12:34Z</time></trkpt><trkpt lat="40.217520" lon="-6.793710"><ele>659.6</ele><time>2008-10-04T16:12:50Z</time></trkpt><trkpt lat="40.217500" lon="-6.793620"><ele>660.1</ele><time>2008-10-04T16:13:10Z</time></trkpt><trkpt lat="40.217450" lon="-6.793460"><ele>663.9</ele><time>2008-10-04T16:13:30Z</time></trkpt><trkpt lat="40.217420" lon="-6.793320"><ele>665.8</ele><time>2008-10-04T16:13:44Z</time></trkpt><trkpt lat="40.217360" lon="-6.793130"><ele>666.8</ele><time>2008-10-04T16:14:03Z</time></trkpt><trkpt lat="40.217340" lon="-6.792950"><ele>667.8</ele><time>2008-10-04T16:14:23Z</time></trkpt><trkpt lat="40.217340" lon="-6.792760"><ele>674.5</ele><time>2008-10-04T16:14:39Z</time></trkpt><trkpt lat="40.217340" lon="-6.792500"><ele>679.3</ele><time>2008-10-04T16:15:02Z</time></trkpt><trkpt lat="40.217440" lon="-6.792440"><ele>683.1</ele><time>2008-10-04T16:15:21Z</time></trkpt><trkpt lat="40.217610" lon="-6.792550"><ele>686.5</ele><time>2008-10-04T16:15:44Z</time></trkpt><trkpt lat="40.217780" lon="-6.792590"><ele>688.5</ele><time>2008-10-04T16:16:07Z</time></trkpt><trkpt lat="40.217950" lon="-6.792670"><ele>692.8</ele><time>2008-10-04T16:16:29Z</time></trkpt><trkpt lat="40.218070" lon="-6.792710"><ele>695.6</ele><time>2008-10-04T16:16:45Z</time></trkpt><trkpt lat="40.218180" lon="-6.792740"><ele>697.6</ele><time>2008-10-04T16:17:02Z</time></trkpt><trkpt lat="40.218360" lon="-6.792800"><ele>700.9</ele><time>2008-10-04T16:17:24Z</time></trkpt><trkpt lat="40.218570" lon="-6.792820"><ele>706.2</ele><time>2008-10-04T16:17:48Z</time></trkpt><trkpt lat="40.218810" lon="-6.792900"><ele>708.6</ele><time>2008-10-04T16:18:15Z</time></trkpt><trkpt lat="40.218910" lon="-6.792940"><ele>713.0</ele><time>2008-10-04T16:18:33Z</time></trkpt><trkpt lat="40.218970" lon="-6.792970"><ele>713.9</ele><time>2008-10-04T16:18:40Z</time></trkpt><trkpt lat="40.219090" lon="-6.793070"><ele>715.4</ele><time>2008-10-04T16:18:57Z</time></trkpt><trkpt lat="40.219230" lon="-6.793210"><ele>715.4</ele><time>2008-10-04T16:19:16Z</time></trkpt><trkpt lat="40.219380" lon="-6.793330"><ele>718.7</ele><time>2008-10-04T16:19:32Z</time></trkpt><trkpt lat="40.219580" lon="-6.793460"><ele>719.7</ele><time>2008-10-04T16:19:55Z</time></trkpt><trkpt lat="40.219690" lon="-6.793570"><ele>721.1</ele><time>2008-10-04T16:20:09Z</time></trkpt><trkpt lat="40.219860" lon="-6.793670"><ele>720.6</ele><time>2008-10-04T16:20:30Z</time></trkpt><trkpt lat="40.220050" lon="-6.793570"><ele>717.3</ele><time>2008-10-04T16:20:49Z</time></trkpt><trkpt lat="40.220190" lon="-6.793470"><ele>722.1</ele><time>2008-10-04T16:21:09Z</time></trkpt><trkpt lat="40.220260" lon="-6.793450"><ele>722.1</ele><time>2008-10-04T16:21:27Z</time></trkpt><trkpt lat="40.220370" lon="-6.793450"><ele>723.0</ele><time>2008-10-04T16:21:49Z</time></trkpt><trkpt lat="40.220470" lon="-6.793460"><ele>722.1</ele><time>2008-10-04T16:22:06Z</time></trkpt><trkpt lat="40.220660" lon="-6.793400"><ele>721.6</ele><time>2008-10-04T16:22:25Z</time></trkpt><trkpt lat="40.220680" lon="-6.793390"><ele>721.1</ele><time>2008-10-04T16:22:26Z</time></trkpt><trkpt lat="40.220910" lon="-6.793120"><ele>722.6</ele><time>2008-10-04T16:22:53Z</time></trkpt><trkpt lat="40.221070" lon="-6.792950"><ele>720.2</ele><time>2008-10-04T16:23:15Z</time></trkpt><trkpt lat="40.221350" lon="-6.792770"><ele>723.5</ele><time>2008-10-04T16:23:54Z</time></trkpt><trkpt lat="40.221590" lon="-6.792790"><ele>726.9</ele><time>2008-10-04T16:24:16Z</time></trkpt><trkpt lat="40.221780" lon="-6.792760"><ele>725.9</ele><time>2008-10-04T16:24:36Z</time></trkpt><trkpt lat="40.221980" lon="-6.792870"><ele>726.4</ele><time>2008-10-04T16:25:03Z</time></trkpt><trkpt lat="40.222180" lon="-6.792930"><ele>729.8</ele><time>2008-10-04T16:25:22Z</time></trkpt><trkpt lat="40.222370" lon="-6.792930"><ele>727.9</ele><time>2008-10-04T16:25:42Z</time></trkpt><trkpt lat="40.222630" lon="-6.792960"><ele>729.8</ele><time>2008-10-04T16:26:04Z</time></trkpt><trkpt lat="40.222760" lon="-6.792980"><ele>731.2</ele><time>2008-10-04T16:26:23Z</time></trkpt><trkpt lat="40.222970" lon="-6.792900"><ele>731.7</ele><time>2008-10-04T16:26:43Z</time></trkpt><trkpt lat="40.223340" lon="-6.792880"><ele>735.5</ele><time>2008-10-04T16:27:25Z</time></trkpt><trkpt lat="40.223860" lon="-6.792730"><ele>736.0</ele><time>2008-10-04T16:28:17Z</time></trkpt><trkpt lat="40.223960" lon="-6.792620"><ele>735.1</ele><time>2008-10-04T16:28:38Z</time></trkpt><trkpt lat="40.224100" lon="-6.792580"><ele>735.5</ele><time>2008-10-04T16:28:50Z</time></trkpt><trkpt lat="40.224200" lon="-6.792360"><ele>742.3</ele><time>2008-10-04T16:29:15Z</time></trkpt><trkpt lat="40.224910" lon="-6.792070"><ele>743.2</ele><time>2008-10-04T16:30:00Z</time></trkpt><trkpt lat="40.225210" lon="-6.791710"><ele>740.4</ele><time>2008-10-04T16:30:50Z</time></trkpt><trkpt lat="40.225390" lon="-6.791520"><ele>738.4</ele><time>2008-10-04T16:31:10Z</time></trkpt><trkpt lat="40.225580" lon="-6.791550"><ele>738.9</ele><time>2008-10-04T16:31:35Z</time></trkpt><trkpt lat="40.225720" lon="-6.791680"><ele>738.4</ele><time>2008-10-04T16:31:55Z</time></trkpt><trkpt lat="40.226030" lon="-6.791860"><ele>738.4</ele><time>2008-10-04T16:32:23Z</time></trkpt><trkpt lat="40.226320" lon="-6.791860"><ele>738.9</ele><time>2008-10-04T16:32:50Z</time></trkpt><trkpt lat="40.226450" lon="-6.791850"><ele>738.9</ele><time>2008-10-04T16:33:08Z</time></trkpt><trkpt lat="40.226840" lon="-6.791590"><ele>734.6</ele><time>2008-10-04T16:33:52Z</time></trkpt><trkpt lat="40.226890" lon="-6.791550"><ele>735.5</ele><time>2008-10-04T16:33:55Z</time></trkpt><trkpt lat="40.227120" lon="-6.791240"><ele>736.0</ele><time>2008-10-04T16:34:30Z</time></trkpt><trkpt lat="40.227210" lon="-6.791090"><ele>734.6</ele><time>2008-10-04T16:34:52Z</time></trkpt><trkpt lat="40.227980" lon="-6.790180"><ele>735.5</ele><time>2008-10-04T16:36:33Z</time></trkpt><trkpt lat="40.228730" lon="-6.789900"><ele>736.0</ele><time>2008-10-04T16:37:55Z</time></trkpt><trkpt lat="40.231900" lon="-6.789350"><ele>741.8</ele><time>2008-10-04T16:43:14Z</time></trkpt><trkpt lat="40.231590" lon="-6.789470"><ele>742.3</ele><time>2008-10-04T16:44:38Z</time></trkpt><trkpt lat="40.231420" lon="-6.789700"><ele>745.6</ele><time>2008-10-04T16:45:03Z</time></trkpt><trkpt lat="40.231330" lon="-6.789890"><ele>744.7</ele><time>2008-10-04T16:45:29Z</time></trkpt><trkpt lat="40.231330" lon="-6.789900"><ele>744.7</ele><time>2008-10-04T16:45:30Z</time></trkpt><trkpt lat="40.230920" lon="-6.790280"><ele>745.1</ele><time>2008-10-04T16:46:05Z</time></trkpt><trkpt lat="40.230800" lon="-6.790410"><ele>745.1</ele><time>2008-10-04T16:46:40Z</time></trkpt><trkpt lat="40.230250" lon="-6.790560"><ele>740.8</ele><time>2008-10-04T16:49:09Z</time></trkpt><trkpt lat="40.228250" lon="-6.791610"><ele>715.9</ele><time>2008-10-04T16:53:35Z</time></trkpt><trkpt lat="40.227990" lon="-6.791960"><ele>710.1</ele><time>2008-10-04T16:54:06Z</time></trkpt><trkpt lat="40.227530" lon="-6.792540"><ele>703.4</ele><time>2008-10-04T16:54:59Z</time></trkpt><trkpt lat="40.227410" lon="-6.792930"><ele>704.8</ele><time>2008-10-04T16:55:28Z</time></trkpt><trkpt lat="40.226730" lon="-6.793350"><ele>688.9</ele><time>2008-10-04T16:56:32Z</time></trkpt><trkpt lat="40.226490" lon="-6.793540"><ele>683.6</ele><time>2008-10-04T16:56:59Z</time></trkpt><trkpt lat="40.226390" lon="-6.793880"><ele>676.9</ele><time>2008-10-04T16:57:27Z</time></trkpt><trkpt lat="40.226180" lon="-6.793910"><ele>659.1</ele><time>2008-10-04T16:59:43Z</time></trkpt><trkpt lat="40.225880" lon="-6.794080"><ele>657.2</ele><time>2008-10-04T17:00:18Z</time></trkpt><trkpt lat="40.225830" lon="-6.794090"><ele>656.7</ele><time>2008-10-04T17:00:21Z</time></trkpt><trkpt lat="40.225710" lon="-6.794210"><ele>657.7</ele><time>2008-10-04T17:00:37Z</time></trkpt><trkpt lat="40.225440" lon="-6.794270"><ele>659.1</ele><time>2008-10-04T17:00:59Z</time></trkpt><trkpt lat="40.225170" lon="-6.794250"><ele>656.7</ele><time>2008-10-04T17:01:23Z</time></trkpt><trkpt lat="40.225080" lon="-6.794320"><ele>656.2</ele><time>2008-10-04T17:01:33Z</time></trkpt><trkpt lat="40.224940" lon="-6.794410"><ele>652.9</ele><time>2008-10-04T17:01:46Z</time></trkpt><trkpt lat="40.224770" lon="-6.794700"><ele>653.8</ele><time>2008-10-04T17:02:09Z</time></trkpt><trkpt lat="40.224560" lon="-6.794880"><ele>651.0</ele><time>2008-10-04T17:02:35Z</time></trkpt><trkpt lat="40.224320" lon="-6.794990"><ele>652.9</ele><time>2008-10-04T17:03:06Z</time></trkpt><trkpt lat="40.224160" lon="-6.795390"><ele>651.9</ele><time>2008-10-04T17:03:37Z</time></trkpt><trkpt lat="40.224050" lon="-6.795590"><ele>651.0</ele><time>2008-10-04T17:04:42Z</time></trkpt><trkpt lat="40.223840" lon="-6.795830"><ele>649.5</ele><time>2008-10-04T17:05:05Z</time></trkpt><trkpt lat="40.223330" lon="-6.796590"><ele>636.5</ele><time>2008-10-04T17:06:23Z</time></trkpt><trkpt lat="40.223210" lon="-6.796790"><ele>641.8</ele><time>2008-10-04T17:06:57Z</time></trkpt><trkpt lat="40.223040" lon="-6.797070"><ele>646.6</ele><time>2008-10-04T17:07:17Z</time></trkpt><trkpt lat="40.222830" lon="-6.797200"><ele>645.7</ele><time>2008-10-04T17:07:37Z</time></trkpt><trkpt lat="40.222870" lon="-6.797200"><ele>638.0</ele><time>2008-10-04T17:08:24Z</time></trkpt><trkpt lat="40.222680" lon="-6.797200"><ele>640.8</ele><time>2008-10-04T17:08:41Z</time></trkpt><trkpt lat="40.222680" lon="-6.797210"><ele>643.2</ele><time>2008-10-04T17:08:42Z</time></trkpt><trkpt lat="40.222500" lon="-6.797310"><ele>643.7</ele><time>2008-10-04T17:09:02Z</time></trkpt><trkpt lat="40.222130" lon="-6.797750"><ele>646.6</ele><time>2008-10-04T17:09:47Z</time></trkpt><trkpt lat="40.221890" lon="-6.797950"><ele>642.3</ele><time>2008-10-04T17:10:10Z</time></trkpt><trkpt lat="40.221270" lon="-6.798310"><ele>637.5</ele><time>2008-10-04T17:11:23Z</time></trkpt><trkpt lat="40.221160" lon="-6.798770"><ele>636.5</ele><time>2008-10-04T17:12:02Z</time></trkpt><trkpt lat="40.220950" lon="-6.799510"><ele>636.1</ele><time>2008-10-04T17:13:04Z</time></trkpt><trkpt lat="40.220590" lon="-6.799770"><ele>626.4</ele><time>2008-10-04T17:14:13Z</time></trkpt><trkpt lat="40.220270" lon="-6.799980"><ele>621.6</ele><time>2008-10-04T17:14:41Z</time></trkpt><trkpt lat="40.220210" lon="-6.800120"><ele>621.2</ele><time>2008-10-04T17:14:59Z</time></trkpt><trkpt lat="40.220060" lon="-6.800730"><ele>609.6</ele><time>2008-10-04T17:16:29Z</time></trkpt><trkpt lat="40.220010" lon="-6.801050"><ele>607.7</ele><time>2008-10-04T17:16:51Z</time></trkpt><trkpt lat="40.219890" lon="-6.801330"><ele>604.3</ele><time>2008-10-04T17:17:14Z</time></trkpt><trkpt lat="40.219690" lon="-6.801390"><ele>600.5</ele><time>2008-10-04T17:17:30Z</time></trkpt><trkpt lat="40.219650" lon="-6.801400"><ele>599.5</ele><time>2008-10-04T17:17:34Z</time></trkpt><trkpt lat="40.219370" lon="-6.801390"><ele>595.7</ele><time>2008-10-04T17:17:58Z</time></trkpt><trkpt lat="40.219160" lon="-6.801480"><ele>596.2</ele><time>2008-10-04T17:18:17Z</time></trkpt><trkpt lat="40.218910" lon="-6.801620"><ele>594.2</ele><time>2008-10-04T17:18:43Z</time></trkpt><trkpt lat="40.218690" lon="-6.801780"><ele>593.8</ele><time>2008-10-04T17:19:06Z</time></trkpt><trkpt lat="40.218490" lon="-6.802030"><ele>592.8</ele><time>2008-10-04T17:19:30Z</time></trkpt><trkpt lat="40.218250" lon="-6.802220"><ele>589.9</ele><time>2008-10-04T17:19:54Z</time></trkpt><trkpt lat="40.218220" lon="-6.802240"><ele>590.9</ele><time>2008-10-04T17:19:57Z</time></trkpt><trkpt lat="40.217930" lon="-6.802280"><ele>590.4</ele><time>2008-10-04T17:20:24Z</time></trkpt><trkpt lat="40.217880" lon="-6.802280"><ele>590.9</ele><time>2008-10-04T17:20:29Z</time></trkpt><trkpt lat="40.217650" lon="-6.802150"><ele>590.9</ele><time>2008-10-04T17:20:50Z</time></trkpt><trkpt lat="40.217520" lon="-6.802110"><ele>595.7</ele><time>2008-10-04T17:21:09Z</time></trkpt><trkpt lat="40.217490" lon="-6.802120"><ele>595.2</ele><time>2008-10-04T17:21:11Z</time></trkpt><trkpt lat="40.217410" lon="-6.802110"><ele>594.2</ele><time>2008-10-04T17:21:26Z</time></trkpt><trkpt lat="40.216990" lon="-6.802070"><ele>597.1</ele><time>2008-10-04T17:22:07Z</time></trkpt><trkpt lat="40.216940" lon="-6.802110"><ele>596.6</ele><time>2008-10-04T17:22:12Z</time></trkpt><trkpt lat="40.216860" lon="-6.802160"><ele>599.5</ele><time>2008-10-04T17:22:34Z</time></trkpt><trkpt lat="40.216820" lon="-6.802190"><ele>603.4</ele><time>2008-10-04T17:23:45Z</time></trkpt><trkpt lat="40.216780" lon="-6.802090"><ele>588.0</ele><time>2008-10-04T17:24:20Z</time></trkpt><trkpt lat="40.216130" lon="-6.802240"><ele>588.9</ele><time>2008-10-04T17:25:25Z</time></trkpt><trkpt lat="40.216130" lon="-6.802460"><ele>587.5</ele><time>2008-10-04T17:25:51Z</time></trkpt><trkpt lat="40.216130" lon="-6.802320"><ele>586.1</ele><time>2008-10-04T17:26:31Z</time></trkpt><trkpt lat="40.216090" lon="-6.802050"><ele>585.6</ele><time>2008-10-04T17:26:54Z</time></trkpt><trkpt lat="40.215960" lon="-6.801830"><ele>585.1</ele><time>2008-10-04T17:27:23Z</time></trkpt><trkpt lat="40.215690" lon="-6.801710"><ele>584.6</ele><time>2008-10-04T17:27:32Z</time></trkpt><trkpt lat="40.215490" lon="-6.801590"><ele>583.2</ele><time>2008-10-04T17:27:52Z</time></trkpt><trkpt lat="40.215040" lon="-6.801260"><ele>579.3</ele><time>2008-10-04T17:28:38Z</time></trkpt><trkpt lat="40.214840" lon="-6.801100"><ele>583.7</ele><time>2008-10-04T17:29:02Z</time></trkpt><trkpt lat="40.214810" lon="-6.801030"><ele>584.6</ele><time>2008-10-04T17:29:09Z</time></trkpt><trkpt lat="40.214710" lon="-6.800860"><ele>584.1</ele><time>2008-10-04T17:29:25Z</time></trkpt><trkpt lat="40.214650" lon="-6.800680"><ele>583.2</ele><time>2008-10-04T17:29:43Z</time></trkpt><trkpt lat="40.214580" lon="-6.800370"><ele>585.6</ele><time>2008-10-04T17:30:05Z</time></trkpt><trkpt lat="40.214550" lon="-6.800160"><ele>585.1</ele><time>2008-10-04T17:30:21Z</time></trkpt><trkpt lat="40.214600" lon="-6.799920"><ele>585.6</ele><time>2008-10-04T17:30:41Z</time></trkpt><trkpt lat="40.214600" lon="-6.799650"><ele>587.0</ele><time>2008-10-04T17:31:00Z</time></trkpt><trkpt lat="40.214580" lon="-6.799500"><ele>588.5</ele><time>2008-10-04T17:31:19Z</time></trkpt><trkpt lat="40.214550" lon="-6.799200"><ele>587.0</ele><time>2008-10-04T17:31:36Z</time></trkpt><trkpt lat="40.214390" lon="-6.798940"><ele>588.0</ele><time>2008-10-04T17:31:58Z</time></trkpt><trkpt lat="40.214200" lon="-6.798690"><ele>588.9</ele><time>2008-10-04T17:32:24Z</time></trkpt><trkpt lat="40.214080" lon="-6.798530"><ele>589.9</ele><time>2008-10-04T17:32:41Z</time></trkpt><trkpt lat="40.213960" lon="-6.798300"><ele>591.8</ele><time>2008-10-04T17:33:04Z</time></trkpt><trkpt lat="40.213810" lon="-6.798010"><ele>592.8</ele><time>2008-10-04T17:33:32Z</time></trkpt><trkpt lat="40.213620" lon="-6.797790"><ele>597.1</ele><time>2008-10-04T17:33:59Z</time></trkpt><trkpt lat="40.213490" lon="-6.797800"><ele>597.1</ele><time>2008-10-04T17:34:17Z</time></trkpt><trkpt lat="40.213290" lon="-6.797630"><ele>600.0</ele><time>2008-10-04T17:34:40Z</time></trkpt><trkpt lat="40.213270" lon="-6.797550"><ele>604.8</ele><time>2008-10-04T17:34:51Z</time></trkpt><trkpt lat="40.213230" lon="-6.797430"><ele>607.7</ele><time>2008-10-04T17:35:11Z</time></trkpt><trkpt lat="40.213230" lon="-6.797400"><ele>608.7</ele><time>2008-10-04T17:35:35Z</time></trkpt><trkpt lat="40.213230" lon="-6.797390"><ele>608.7</ele><time>2008-10-04T17:35:42Z</time></trkpt><trkpt lat="40.213240" lon="-6.797350"><ele>608.7</ele><time>2008-10-04T17:35:45Z</time></trkpt><trkpt lat="40.213250" lon="-6.797360"><ele>609.1</ele><time>2008-10-04T17:36:00Z</time></trkpt><trkpt lat="40.213220" lon="-6.797460"><ele>611.1</ele><time>2008-10-04T17:36:17Z</time></trkpt></trkseg></trk></gpx>